sensor_id;sensor_type;location;lat;lon;timestamp;temperature;humidity
19340;HTU21D;9804;52.350;6.684;2023-12-20T00:00:51;8.64;118.99
19340;HTU21D;9804;52.350;6.684;2023-12-20T00:03:16;8.66;118.99
19340;HTU21D;9804;52.350;6.684;2023-12-20T00:05:42;8.59;118.99
19340;HTU21D;9804;52.350;6.684;2023-12-20T00:08:07;8.60;118.99
19340;HTU21D;9804;52.350;6.684;2023-12-20T00:10:33;8.60;118.99
19340;HTU21D;9804;52.350;6.684;2023-12-20T00:12:58;8.63;118.99
19340;HTU21D;9804;52.350;6.684;2023-12-20T00:15:24;8.72;118.99
19340;HTU21D;9804;52.350;6.684;2023-12-20T00:17:49;8.66;118.99
19340;HTU21D;9804;52.350;6.684;2023-12-20T00:20:14;8.43;118.99
19340;HTU21D;9804;52.350;6.684;2023-12-20T00:22:40;8.46;118.99
19340;HTU21D;9804;52.350;6.684;2023-12-20T00:25:06;8.37;118.99
19340;HTU21D;9804;52.350;6.684;2023-12-20T00:27:32;8.50;118.99
19340;HTU21D;9804;52.350;6.684;2023-12-20T00:29:57;8.62;118.99
19340;HTU21D;9804;52.350;6.684;2023-12-20T00:32:22;8.64;118.99
19340;HTU21D;9804;52.350;6.684;2023-12-20T00:34:48;8.50;118.99
19340;HTU21D;9804;52.350;6.684;2023-12-20T00:37:13;8.43;118.99
19340;HTU21D;9804;52.350;6.684;2023-12-20T00:39:39;8.56;118.99
19340;HTU21D;9804;52.350;6.684;2023-12-20T00:42:04;8.29;118.99
19340;HTU21D;9804;52.350;6.684;2023-12-20T00:44:30;8.24;118.99
19340;HTU21D;9804;52.350;6.684;2023-12-20T00:46:55;8.30;118.99
19340;HTU21D;9804;52.350;6.684;2023-12-20T00:49:21;8.38;118.99
19340;HTU21D;9804;52.350;6.684;2023-12-20T00:51:46;8.23;118.99
19340;HTU21D;9804;52.350;6.684;2023-12-20T00:54:13;8.37;118.99
19340;HTU21D;9804;52.350;6.684;2023-12-20T00:56:38;8.31;118.99
19340;HTU21D;9804;52.350;6.684;2023-12-20T00:59:04;8.22;118.99
19340;HTU21D;9804;52.350;6.684;2023-12-20T01:01:29;8.08;118.99
19340;HTU21D;9804;52.350;6.684;2023-12-20T01:03:55;8.14;118.99
19340;HTU21D;9804;52.350;6.684;2023-12-20T01:06:20;8.02;118.99
19340;HTU21D;9804;52.350;6.684;2023-12-20T01:08:46;8.09;118.99
19340;HTU21D;9804;52.350;6.684;2023-12-20T01:11:11;8.13;118.99
19340;HTU21D;9804;52.350;6.684;2023-12-20T01:13:37;8.00;118.99
19340;HTU21D;9804;52.350;6.684;2023-12-20T01:16:02;8.02;118.99
19340;HTU21D;9804;52.350;6.684;2023-12-20T01:18:28;8.05;118.99
19340;HTU21D;9804;52.350;6.684;2023-12-20T01:20:54;8.01;118.99
19340;HTU21D;9804;52.350;6.684;2023-12-20T01:23:19;7.98;118.99
19340;HTU21D;9804;52.350;6.684;2023-12-20T01:25:45;8.06;118.99
19340;HTU21D;9804;52.350;6.684;2023-12-20T01:28:10;7.96;118.99
19340;HTU21D;9804;52.350;6.684;2023-12-20T01:30:35;8.07;118.99
19340;HTU21D;9804;52.350;6.684;2023-12-20T01:33:01;8.05;118.99
19340;HTU21D;9804;52.350;6.684;2023-12-20T01:35:27;8.03;118.99
19340;HTU21D;9804;52.350;6.684;2023-12-20T01:37:52;8.13;118.99
19340;HTU21D;9804;52.350;6.684;2023-12-20T01:40:22;8.05;118.99
19340;HTU21D;9804;52.350;6.684;2023-12-20T01:42:47;8.09;118.99
19340;HTU21D;9804;52.350;6.684;2023-12-20T01:45:13;8.15;118.99
19340;HTU21D;9804;52.350;6.684;2023-12-20T01:47:38;8.13;118.99
19340;HTU21D;9804;52.350;6.684;2023-12-20T01:50:05;8.09;118.99
19340;HTU21D;9804;52.350;6.684;2023-12-20T01:52:33;8.14;118.99
19340;HTU21D;9804;52.350;6.684;2023-12-20T01:54:59;8.13;118.99
19340;HTU21D;9804;52.350;6.684;2023-12-20T01:57:28;8.16;118.99
19340;HTU21D;9804;52.350;6.684;2023-12-20T01:59:53;8.22;118.99
19340;HTU21D;9804;52.350;6.684;2023-12-20T02:02:19;8.17;118.99
19340;HTU21D;9804;52.350;6.684;2023-12-20T02:04:45;8.15;118.99
19340;HTU21D;9804;52.350;6.684;2023-12-20T02:07:11;8.11;118.99
19340;HTU21D;9804;52.350;6.684;2023-12-20T02:09:38;7.99;118.99
19340;HTU21D;9804;52.350;6.684;2023-12-20T02:12:03;8.01;118.99
19340;HTU21D;9804;52.350;6.684;2023-12-20T02:14:30;8.02;118.99
19340;HTU21D;9804;52.350;6.684;2023-12-20T02:16:55;8.02;118.99
19340;HTU21D;9804;52.350;6.684;2023-12-20T02:19:21;8.02;118.99
19340;HTU21D;9804;52.350;6.684;2023-12-20T02:21:46;7.96;118.99
19340;HTU21D;9804;52.350;6.684;2023-12-20T02:24:12;8.11;118.99
19340;HTU21D;9804;52.350;6.684;2023-12-20T02:26:38;7.97;118.99
19340;HTU21D;9804;52.350;6.684;2023-12-20T02:29:03;8.03;118.99
19340;HTU21D;9804;52.350;6.684;2023-12-20T02:31:29;7.96;118.99
19340;HTU21D;9804;52.350;6.684;2023-12-20T02:33:54;7.94;118.99
19340;HTU21D;9804;52.350;6.684;2023-12-20T02:36:19;7.92;118.99
19340;HTU21D;9804;52.350;6.684;2023-12-20T02:38:45;7.96;118.99
19340;HTU21D;9804;52.350;6.684;2023-12-20T02:41:10;7.93;118.99
19340;HTU21D;9804;52.350;6.684;2023-12-20T02:43:37;7.87;118.99
19340;HTU21D;9804;52.350;6.684;2023-12-20T02:46:02;7.76;118.99
19340;HTU21D;9804;52.350;6.684;2023-12-20T02:48:28;7.86;118.99
19340;HTU21D;9804;52.350;6.684;2023-12-20T02:50:54;7.86;118.99
19340;HTU21D;9804;52.350;6.684;2023-12-20T02:53:19;8.01;118.99
19340;HTU21D;9804;52.350;6.684;2023-12-20T02:55:45;8.01;118.99
19340;HTU21D;9804;52.350;6.684;2023-12-20T02:58:10;8.04;118.99
19340;HTU21D;9804;52.350;6.684;2023-12-20T03:00:35;7.90;118.99
19340;HTU21D;9804;52.350;6.684;2023-12-20T03:03:01;8.01;118.99
19340;HTU21D;9804;52.350;6.684;2023-12-20T03:05:26;7.88;118.99
19340;HTU21D;9804;52.350;6.684;2023-12-20T03:07:52;8.03;118.99
19340;HTU21D;9804;52.350;6.684;2023-12-20T03:10:18;8.11;118.99
19340;HTU21D;9804;52.350;6.684;2023-12-20T03:12:44;8.06;118.99
19340;HTU21D;9804;52.350;6.684;2023-12-20T03:15:10;8.16;118.99
19340;HTU21D;9804;52.350;6.684;2023-12-20T03:17:36;8.20;118.99
19340;HTU21D;9804;52.350;6.684;2023-12-20T03:20:01;8.05;118.99
19340;HTU21D;9804;52.350;6.684;2023-12-20T03:22:27;8.12;118.99
19340;HTU21D;9804;52.350;6.684;2023-12-20T03:24:52;8.07;118.99
19340;HTU21D;9804;52.350;6.684;2023-12-20T03:27:18;8.20;118.99
19340;HTU21D;9804;52.350;6.684;2023-12-20T03:29:43;8.06;118.99
19340;HTU21D;9804;52.350;6.684;2023-12-20T03:32:09;8.28;118.99
19340;HTU21D;9804;52.350;6.684;2023-12-20T03:34:34;8.26;118.99
19340;HTU21D;9804;52.350;6.684;2023-12-20T03:36:59;8.28;118.99
19340;HTU21D;9804;52.350;6.684;2023-12-20T03:39:25;8.22;118.99
19340;HTU21D;9804;52.350;6.684;2023-12-20T03:41:50;8.30;118.99
19340;HTU21D;9804;52.350;6.684;2023-12-20T03:44:16;8.43;118.99
19340;HTU21D;9804;52.350;6.684;2023-12-20T03:46:41;8.42;118.99
19340;HTU21D;9804;52.350;6.684;2023-12-20T03:49:07;8.43;118.99
19340;HTU21D;9804;52.350;6.684;2023-12-20T03:51:32;8.38;118.99
19340;HTU21D;9804;52.350;6.684;2023-12-20T03:53:57;8.37;118.99
19340;HTU21D;9804;52.350;6.684;2023-12-20T03:56:23;8.34;118.99
19340;HTU21D;9804;52.350;6.684;2023-12-20T03:58:48;8.46;118.99
19340;HTU21D;9804;52.350;6.684;2023-12-20T04:01:14;8.50;118.99
19340;HTU21D;9804;52.350;6.684;2023-12-20T04:03:39;8.35;118.99
19340;HTU21D;9804;52.350;6.684;2023-12-20T04:06:05;8.46;118.99
19340;HTU21D;9804;52.350;6.684;2023-12-20T04:08:31;8.59;118.99
19340;HTU21D;9804;52.350;6.684;2023-12-20T04:10:56;8.48;118.99
19340;HTU21D;9804;52.350;6.684;2023-12-20T04:13:22;8.57;118.99
19340;HTU21D;9804;52.350;6.684;2023-12-20T04:15:47;8.51;118.99
19340;HTU21D;9804;52.350;6.684;2023-12-20T04:18:15;8.60;118.99
19340;HTU21D;9804;52.350;6.684;2023-12-20T04:20:40;8.52;118.99
19340;HTU21D;9804;52.350;6.684;2023-12-20T04:23:06;8.51;118.99
19340;HTU21D;9804;52.350;6.684;2023-12-20T04:25:31;8.52;118.99
19340;HTU21D;9804;52.350;6.684;2023-12-20T04:27:57;8.47;118.99
19340;HTU21D;9804;52.350;6.684;2023-12-20T04:30:22;8.57;118.99
19340;HTU21D;9804;52.350;6.684;2023-12-20T04:32:48;8.55;118.99
19340;HTU21D;9804;52.350;6.684;2023-12-20T04:35:13;8.67;118.99
19340;HTU21D;9804;52.350;6.684;2023-12-20T04:37:39;8.57;118.99
19340;HTU21D;9804;52.350;6.684;2023-12-20T04:40:04;8.73;118.99
19340;HTU21D;9804;52.350;6.684;2023-12-20T04:42:30;8.61;118.99
19340;HTU21D;9804;52.350;6.684;2023-12-20T04:44:56;8.60;118.99
19340;HTU21D;9804;52.350;6.684;2023-12-20T04:47:21;8.53;118.99
19340;HTU21D;9804;52.350;6.684;2023-12-20T04:49:47;8.50;118.99
19340;HTU21D;9804;52.350;6.684;2023-12-20T04:52:13;8.58;118.99
19340;HTU21D;9804;52.350;6.684;2023-12-20T04:54:38;8.46;118.99
19340;HTU21D;9804;52.350;6.684;2023-12-20T04:57:04;8.48;118.99
19340;HTU21D;9804;52.350;6.684;2023-12-20T04:59:29;8.48;118.99
19340;HTU21D;9804;52.350;6.684;2023-12-20T05:01:54;8.50;118.99
19340;HTU21D;9804;52.350;6.684;2023-12-20T05:04:20;8.55;118.99
19340;HTU21D;9804;52.350;6.684;2023-12-20T05:06:45;8.72;118.99
19340;HTU21D;9804;52.350;6.684;2023-12-20T05:09:11;8.67;118.99
19340;HTU21D;9804;52.350;6.684;2023-12-20T05:11:36;8.64;118.99
19340;HTU21D;9804;52.350;6.684;2023-12-20T05:14:01;8.65;118.99
19340;HTU21D;9804;52.350;6.684;2023-12-20T05:16:27;8.64;118.99
19340;HTU21D;9804;52.350;6.684;2023-12-20T05:18:52;8.80;118.99
19340;HTU21D;9804;52.350;6.684;2023-12-20T05:21:18;8.78;118.99
19340;HTU21D;9804;52.350;6.684;2023-12-20T05:23:43;8.79;118.99
19340;HTU21D;9804;52.350;6.684;2023-12-20T05:26:09;8.87;118.99
19340;HTU21D;9804;52.350;6.684;2023-12-20T05:28:34;8.78;118.99
19340;HTU21D;9804;52.350;6.684;2023-12-20T05:31:00;8.79;118.99
19340;HTU21D;9804;52.350;6.684;2023-12-20T05:33:25;8.80;118.99
19340;HTU21D;9804;52.350;6.684;2023-12-20T05:35:51;8.87;118.99
19340;HTU21D;9804;52.350;6.684;2023-12-20T05:38:16;8.79;118.99
19340;HTU21D;9804;52.350;6.684;2023-12-20T05:40:42;8.83;118.99
19340;HTU21D;9804;52.350;6.684;2023-12-20T05:43:07;8.96;118.99
19340;HTU21D;9804;52.350;6.684;2023-12-20T05:45:32;8.92;118.99
19340;HTU21D;9804;52.350;6.684;2023-12-20T05:47:58;8.94;118.99
19340;HTU21D;9804;52.350;6.684;2023-12-20T05:50:24;8.93;118.99
19340;HTU21D;9804;52.350;6.684;2023-12-20T05:52:49;8.98;118.99
19340;HTU21D;9804;52.350;6.684;2023-12-20T05:55:15;8.92;118.99
19340;HTU21D;9804;52.350;6.684;2023-12-20T05:57:41;8.89;118.99
19340;HTU21D;9804;52.350;6.684;2023-12-20T06:00:09;8.91;118.99
19340;HTU21D;9804;52.350;6.684;2023-12-20T06:02:34;9.02;118.99
19340;HTU21D;9804;52.350;6.684;2023-12-20T06:05:02;8.94;118.99
19340;HTU21D;9804;52.350;6.684;2023-12-20T06:07:28;8.81;118.99
19340;HTU21D;9804;52.350;6.684;2023-12-20T06:09:53;9.03;118.99
19340;HTU21D;9804;52.350;6.684;2023-12-20T06:12:18;8.88;118.99
19340;HTU21D;9804;52.350;6.684;2023-12-20T06:14:44;8.83;118.99
19340;HTU21D;9804;52.350;6.684;2023-12-20T06:17:09;8.89;118.99
19340;HTU21D;9804;52.350;6.684;2023-12-20T06:19:35;8.98;118.99
19340;HTU21D;9804;52.350;6.684;2023-12-20T06:22:00;8.82;118.99
19340;HTU21D;9804;52.350;6.684;2023-12-20T06:24:25;9.00;118.99
19340;HTU21D;9804;52.350;6.684;2023-12-20T06:26:53;9.15;118.99
19340;HTU21D;9804;52.350;6.684;2023-12-20T06:29:21;8.97;118.99
19340;HTU21D;9804;52.350;6.684;2023-12-20T06:31:46;8.97;118.99
19340;HTU21D;9804;52.350;6.684;2023-12-20T06:34:12;8.93;118.99
19340;HTU21D;9804;52.350;6.684;2023-12-20T06:36:37;9.00;118.99
19340;HTU21D;9804;52.350;6.684;2023-12-20T06:39:03;9.20;118.99
19340;HTU21D;9804;52.350;6.684;2023-12-20T06:41:30;9.06;118.99
19340;HTU21D;9804;52.350;6.684;2023-12-20T06:43:55;9.02;118.99
19340;HTU21D;9804;52.350;6.684;2023-12-20T06:46:21;9.12;118.99
19340;HTU21D;9804;52.350;6.684;2023-12-20T06:48:46;9.14;118.99
19340;HTU21D;9804;52.350;6.684;2023-12-20T06:51:14;9.17;118.99
19340;HTU21D;9804;52.350;6.684;2023-12-20T06:53:40;9.14;118.99
19340;HTU21D;9804;52.350;6.684;2023-12-20T06:56:06;9.17;118.99
19340;HTU21D;9804;52.350;6.684;2023-12-20T06:58:32;9.19;118.99
19340;HTU21D;9804;52.350;6.684;2023-12-20T07:00:58;9.24;118.99
19340;HTU21D;9804;52.350;6.684;2023-12-20T07:03:23;9.19;118.99
19340;HTU21D;9804;52.350;6.684;2023-12-20T07:05:49;9.11;118.99
19340;HTU21D;9804;52.350;6.684;2023-12-20T07:08:14;9.17;118.99
19340;HTU21D;9804;52.350;6.684;2023-12-20T07:10:41;9.12;118.99
19340;HTU21D;9804;52.350;6.684;2023-12-20T07:13:06;9.11;118.99
19340;HTU21D;9804;52.350;6.684;2023-12-20T07:15:33;9.33;118.99
19340;HTU21D;9804;52.350;6.684;2023-12-20T07:17:58;9.26;118.99
19340;HTU21D;9804;52.350;6.684;2023-12-20T07:20:26;9.25;118.99
19340;HTU21D;9804;52.350;6.684;2023-12-20T07:22:51;9.23;118.99
19340;HTU21D;9804;52.350;6.684;2023-12-20T07:25:16;9.23;118.99
19340;HTU21D;9804;52.350;6.684;2023-12-20T07:27:42;9.38;118.99
19340;HTU21D;9804;52.350;6.684;2023-12-20T07:30:08;9.30;118.99
19340;HTU21D;9804;52.350;6.684;2023-12-20T07:32:33;9.32;118.99
19340;HTU21D;9804;52.350;6.684;2023-12-20T07:34:59;9.37;118.99
19340;HTU21D;9804;52.350;6.684;2023-12-20T07:37:24;9.29;118.99
19340;HTU21D;9804;52.350;6.684;2023-12-20T07:39:50;9.31;118.99
19340;HTU21D;9804;52.350;6.684;2023-12-20T07:42:15;9.40;118.99
19340;HTU21D;9804;52.350;6.684;2023-12-20T07:44:40;9.44;118.99
19340;HTU21D;9804;52.350;6.684;2023-12-20T07:47:06;9.41;118.99
19340;HTU21D;9804;52.350;6.684;2023-12-20T07:49:32;9.35;118.99
19340;HTU21D;9804;52.350;6.684;2023-12-20T07:51:57;9.53;118.99
19340;HTU21D;9804;52.350;6.684;2023-12-20T07:54:23;9.40;118.99
19340;HTU21D;9804;52.350;6.684;2023-12-20T07:56:49;9.45;118.99
19340;HTU21D;9804;52.350;6.684;2023-12-20T07:59:14;9.46;118.99
19340;HTU21D;9804;52.350;6.684;2023-12-20T08:01:39;9.41;118.99
19340;HTU21D;9804;52.350;6.684;2023-12-20T08:04:05;9.46;118.99
19340;HTU21D;9804;52.350;6.684;2023-12-20T08:06:31;9.44;118.99
19340;HTU21D;9804;52.350;6.684;2023-12-20T08:08:57;9.56;118.99
19340;HTU21D;9804;52.350;6.684;2023-12-20T08:11:22;9.56;118.99
19340;HTU21D;9804;52.350;6.684;2023-12-20T08:13:47;9.53;118.99
19340;HTU21D;9804;52.350;6.684;2023-12-20T08:16:13;9.51;118.99
19340;HTU21D;9804;52.350;6.684;2023-12-20T08:18:40;9.60;118.99
19340;HTU21D;9804;52.350;6.684;2023-12-20T08:21:06;9.62;118.99
19340;HTU21D;9804;52.350;6.684;2023-12-20T08:23:33;9.66;118.99
19340;HTU21D;9804;52.350;6.684;2023-12-20T08:26:06;9.62;118.99
19340;HTU21D;9804;52.350;6.684;2023-12-20T08:28:32;9.61;118.99
19340;HTU21D;9804;52.350;6.684;2023-12-20T08:30:58;9.60;118.99
19340;HTU21D;9804;52.350;6.684;2023-12-20T08:33:24;9.45;118.99
19340;HTU21D;9804;52.350;6.684;2023-12-20T08:35:49;9.57;118.99
19340;HTU21D;9804;52.350;6.684;2023-12-20T08:38:15;9.60;118.99
19340;HTU21D;9804;52.350;6.684;2023-12-20T08:40:41;9.51;118.99
19340;HTU21D;9804;52.350;6.684;2023-12-20T08:43:07;9.60;118.99
19340;HTU21D;9804;52.350;6.684;2023-12-20T08:45:32;9.55;118.99
19340;HTU21D;9804;52.350;6.684;2023-12-20T08:47:58;9.49;118.99
19340;HTU21D;9804;52.350;6.684;2023-12-20T08:50:25;9.44;118.99
19340;HTU21D;9804;52.350;6.684;2023-12-20T08:52:50;9.54;118.99
19340;HTU21D;9804;52.350;6.684;2023-12-20T08:55:16;9.48;118.99
19340;HTU21D;9804;52.350;6.684;2023-12-20T08:57:43;9.41;118.99
19340;HTU21D;9804;52.350;6.684;2023-12-20T09:00:09;9.61;118.99
19340;HTU21D;9804;52.350;6.684;2023-12-20T09:02:35;9.51;118.99
19340;HTU21D;9804;52.350;6.684;2023-12-20T09:05:03;9.47;118.99
19340;HTU21D;9804;52.350;6.684;2023-12-20T09:07:29;9.47;118.99
19340;HTU21D;9804;52.350;6.684;2023-12-20T09:09:57;9.54;118.99
19340;HTU21D;9804;52.350;6.684;2023-12-20T09:12:24;9.42;118.99
19340;HTU21D;9804;52.350;6.684;2023-12-20T09:14:51;9.42;118.99
19340;HTU21D;9804;52.350;6.684;2023-12-20T09:17:17;9.29;118.99
19340;HTU21D;9804;52.350;6.684;2023-12-20T09:19:43;9.44;118.99
19340;HTU21D;9804;52.350;6.684;2023-12-20T09:22:09;9.31;118.99
19340;HTU21D;9804;52.350;6.684;2023-12-20T09:24:35;9.44;118.99
19340;HTU21D;9804;52.350;6.684;2023-12-20T09:27:00;9.56;118.99
19340;HTU21D;9804;52.350;6.684;2023-12-20T09:29:26;9.46;118.99
19340;HTU21D;9804;52.350;6.684;2023-12-20T09:31:51;9.44;118.99
19340;HTU21D;9804;52.350;6.684;2023-12-20T09:34:17;9.54;118.99
19340;HTU21D;9804;52.350;6.684;2023-12-20T09:36:42;9.61;118.99
19340;HTU21D;9804;52.350;6.684;2023-12-20T09:39:16;9.72;118.99
19340;HTU21D;9804;52.350;6.684;2023-12-20T09:41:45;9.76;118.99
19340;HTU21D;9804;52.350;6.684;2023-12-20T09:44:15;9.78;118.99
19340;HTU21D;9804;52.350;6.684;2023-12-20T09:46:44;9.70;118.99
19340;HTU21D;9804;52.350;6.684;2023-12-20T09:49:10;9.75;118.99
19340;HTU21D;9804;52.350;6.684;2023-12-20T09:51:36;9.85;118.99
19340;HTU21D;9804;52.350;6.684;2023-12-20T09:54:03;9.65;118.99
19340;HTU21D;9804;52.350;6.684;2023-12-20T09:56:29;9.81;118.99
19340;HTU21D;9804;52.350;6.684;2023-12-20T09:58:55;9.81;118.99
19340;HTU21D;9804;52.350;6.684;2023-12-20T10:01:21;9.79;118.99
19340;HTU21D;9804;52.350;6.684;2023-12-20T10:03:50;9.88;118.99
19340;HTU21D;9804;52.350;6.684;2023-12-20T10:06:16;9.83;118.99
19340;HTU21D;9804;52.350;6.684;2023-12-20T10:08:42;10.03;118.99
19340;HTU21D;9804;52.350;6.684;2023-12-20T10:11:07;9.93;118.99
19340;HTU21D;9804;52.350;6.684;2023-12-20T10:13:33;9.97;118.99
19340;HTU21D;9804;52.350;6.684;2023-12-20T10:15:59;10.01;118.99
19340;HTU21D;9804;52.350;6.684;2023-12-20T10:18:24;10.18;118.99
19340;HTU21D;9804;52.350;6.684;2023-12-20T10:20:50;10.12;118.99
19340;HTU21D;9804;52.350;6.684;2023-12-20T10:23:16;10.16;118.99
19340;HTU21D;9804;52.350;6.684;2023-12-20T10:25:41;10.19;118.99
19340;HTU21D;9804;52.350;6.684;2023-12-20T10:28:16;10.23;118.99
19340;HTU21D;9804;52.350;6.684;2023-12-20T10:30:44;10.36;118.99
19340;HTU21D;9804;52.350;6.684;2023-12-20T10:33:10;10.33;118.99
19340;HTU21D;9804;52.350;6.684;2023-12-20T10:35:37;10.45;118.99
19340;HTU21D;9804;52.350;6.684;2023-12-20T10:38:04;10.57;118.99
19340;HTU21D;9804;52.350;6.684;2023-12-20T10:40:31;10.66;118.99
19340;HTU21D;9804;52.350;6.684;2023-12-20T10:42:58;10.58;118.99
19340;HTU21D;9804;52.350;6.684;2023-12-20T10:45:24;10.49;118.99
19340;HTU21D;9804;52.350;6.684;2023-12-20T10:47:51;10.68;118.99
19340;HTU21D;9804;52.350;6.684;2023-12-20T10:50:17;10.52;118.99
19340;HTU21D;9804;52.350;6.684;2023-12-20T10:52:44;10.62;118.99
19340;HTU21D;9804;52.350;6.684;2023-12-20T10:55:10;10.65;118.99
19340;HTU21D;9804;52.350;6.684;2023-12-20T10:57:36;10.59;118.99
19340;HTU21D;9804;52.350;6.684;2023-12-20T11:00:02;10.58;118.99
19340;HTU21D;9804;52.350;6.684;2023-12-20T11:02:38;10.82;118.99
19340;HTU21D;9804;52.350;6.684;2023-12-20T11:08:19;10.36;118.99
19340;HTU21D;9804;52.350;6.684;2023-12-20T11:11:02;10.52;118.99
19340;HTU21D;9804;52.350;6.684;2023-12-20T11:13:35;10.50;118.99
19340;HTU21D;9804;52.350;6.684;2023-12-20T11:16:02;10.52;118.99
19340;HTU21D;9804;52.350;6.684;2023-12-20T11:18:30;10.53;118.99
19340;HTU21D;9804;52.350;6.684;2023-12-20T11:21:02;10.35;118.99
19340;HTU21D;9804;52.350;6.684;2023-12-20T11:23:30;10.55;118.99
19340;HTU21D;9804;52.350;6.684;2023-12-20T11:25:58;10.30;118.99
19340;HTU21D;9804;52.350;6.684;2023-12-20T11:28:26;10.48;118.99
19340;HTU21D;9804;52.350;6.684;2023-12-20T11:30:55;10.67;118.99
19340;HTU21D;9804;52.350;6.684;2023-12-20T11:33:22;10.28;118.99
19340;HTU21D;9804;52.350;6.684;2023-12-20T11:35:48;8.98;118.99
19340;HTU21D;9804;52.350;6.684;2023-12-20T11:38:14;8.87;118.99
19340;HTU21D;9804;52.350;6.684;2023-12-20T11:40:44;9.14;118.99
19340;HTU21D;9804;52.350;6.684;2023-12-20T11:43:09;9.14;118.99
19340;HTU21D;9804;52.350;6.684;2023-12-20T11:45:35;8.94;118.99
19340;HTU21D;9804;52.350;6.684;2023-12-20T11:48:02;9.16;118.99
19340;HTU21D;9804;52.350;6.684;2023-12-20T11:50:28;9.05;118.99
19340;HTU21D;9804;52.350;6.684;2023-12-20T11:52:55;9.21;118.99
19340;HTU21D;9804;52.350;6.684;2023-12-20T11:55:21;9.41;118.99
19340;HTU21D;9804;52.350;6.684;2023-12-20T11:57:47;9.34;118.99
19340;HTU21D;9804;52.350;6.684;2023-12-20T12:00:14;9.01;118.99
19340;HTU21D;9804;52.350;6.684;2023-12-20T12:02:40;9.36;118.99
19340;HTU21D;9804;52.350;6.684;2023-12-20T12:05:06;9.31;118.99
19340;HTU21D;9804;52.350;6.684;2023-12-20T12:07:32;9.52;118.99
19340;HTU21D;9804;52.350;6.684;2023-12-20T12:09:57;9.35;118.99
19340;HTU21D;9804;52.350;6.684;2023-12-20T12:12:24;9.57;118.99
19340;HTU21D;9804;52.350;6.684;2023-12-20T12:14:50;9.57;118.99
19340;HTU21D;9804;52.350;6.684;2023-12-20T12:17:16;9.59;118.99
19340;HTU21D;9804;52.350;6.684;2023-12-20T12:19:42;9.32;118.99
19340;HTU21D;9804;52.350;6.684;2023-12-20T12:22:14;9.31;118.99
19340;HTU21D;9804;52.350;6.684;2023-12-20T12:24:45;9.60;118.99
19340;HTU21D;9804;52.350;6.684;2023-12-20T12:27:12;9.45;118.99
19340;HTU21D;9804;52.350;6.684;2023-12-20T12:29:38;9.56;118.99
19340;HTU21D;9804;52.350;6.684;2023-12-20T12:32:08;9.29;118.99
19340;HTU21D;9804;52.350;6.684;2023-12-20T12:34:34;9.48;118.99
19340;HTU21D;9804;52.350;6.684;2023-12-20T12:37:01;9.27;118.99
19340;HTU21D;9804;52.350;6.684;2023-12-20T12:39:26;9.38;118.99
19340;HTU21D;9804;52.350;6.684;2023-12-20T12:41:52;9.41;118.99
19340;HTU21D;9804;52.350;6.684;2023-12-20T12:44:18;9.44;118.99
19340;HTU21D;9804;52.350;6.684;2023-12-20T12:46:47;9.23;118.99
19340;HTU21D;9804;52.350;6.684;2023-12-20T12:49:16;9.32;118.99
19340;HTU21D;9804;52.350;6.684;2023-12-20T12:51:42;9.31;118.99
19340;HTU21D;9804;52.350;6.684;2023-12-20T12:54:08;9.16;118.99
19340;HTU21D;9804;52.350;6.684;2023-12-20T12:56:35;9.17;118.99
19340;HTU21D;9804;52.350;6.684;2023-12-20T12:59:01;9.29;118.99
19340;HTU21D;9804;52.350;6.684;2023-12-20T13:01:26;9.09;118.99
19340;HTU21D;9804;52.350;6.684;2023-12-20T13:03:52;9.14;118.99
19340;HTU21D;9804;52.350;6.684;2023-12-20T13:06:17;9.09;118.99
19340;HTU21D;9804;52.350;6.684;2023-12-20T13:08:43;9.12;118.99
19340;HTU21D;9804;52.350;6.684;2023-12-20T13:11:09;9.36;118.99
19340;HTU21D;9804;52.350;6.684;2023-12-20T13:13:35;9.51;118.99
19340;HTU21D;9804;52.350;6.684;2023-12-20T13:16:00;9.48;118.99
19340;HTU21D;9804;52.350;6.684;2023-12-20T13:18:26;9.34;118.99
19340;HTU21D;9804;52.350;6.684;2023-12-20T13:20:52;9.26;118.99
19340;HTU21D;9804;52.350;6.684;2023-12-20T13:23:17;9.32;118.99
19340;HTU21D;9804;52.350;6.684;2023-12-20T13:25:46;9.35;118.99
19340;HTU21D;9804;52.350;6.684;2023-12-20T13:28:12;9.35;118.99
19340;HTU21D;9804;52.350;6.684;2023-12-20T13:30:38;9.41;118.99
19340;HTU21D;9804;52.350;6.684;2023-12-20T13:33:04;9.30;118.99
19340;HTU21D;9804;52.350;6.684;2023-12-20T13:35:30;9.46;118.99
19340;HTU21D;9804;52.350;6.684;2023-12-20T13:37:57;9.39;118.99
19340;HTU21D;9804;52.350;6.684;2023-12-20T13:40:22;9.48;118.99
19340;HTU21D;9804;52.350;6.684;2023-12-20T13:42:48;9.46;118.99
19340;HTU21D;9804;52.350;6.684;2023-12-20T13:45:13;9.54;118.99
19340;HTU21D;9804;52.350;6.684;2023-12-20T13:47:39;9.65;118.99
19340;HTU21D;9804;52.350;6.684;2023-12-20T13:50:05;9.59;118.99
19340;HTU21D;9804;52.350;6.684;2023-12-20T13:52:30;9.72;118.99
19340;HTU21D;9804;52.350;6.684;2023-12-20T13:54:56;9.64;118.99
19340;HTU21D;9804;52.350;6.684;2023-12-20T13:57:21;9.69;118.99
19340;HTU21D;9804;52.350;6.684;2023-12-20T13:59:47;9.70;118.99
19340;HTU21D;9804;52.350;6.684;2023-12-20T14:02:13;9.71;118.99
19340;HTU21D;9804;52.350;6.684;2023-12-20T14:04:38;9.76;118.99
19340;HTU21D;9804;52.350;6.684;2023-12-20T14:07:05;9.93;118.99
19340;HTU21D;9804;52.350;6.684;2023-12-20T14:09:30;9.91;118.99
19340;HTU21D;9804;52.350;6.684;2023-12-20T14:11:55;9.79;118.99
19340;HTU21D;9804;52.350;6.684;2023-12-20T14:14:21;9.79;118.99
19340;HTU21D;9804;52.350;6.684;2023-12-20T14:16:46;9.98;118.99
19340;HTU21D;9804;52.350;6.684;2023-12-20T14:19:12;9.92;118.99
19340;HTU21D;9804;52.350;6.684;2023-12-20T14:21:37;10.09;118.99
19340;HTU21D;9804;52.350;6.684;2023-12-20T14:24:03;9.94;118.99
19340;HTU21D;9804;52.350;6.684;2023-12-20T14:26:29;9.96;118.99
19340;HTU21D;9804;52.350;6.684;2023-12-20T14:28:55;10.12;118.99
19340;HTU21D;9804;52.350;6.684;2023-12-20T14:31:20;10.06;118.99
19340;HTU21D;9804;52.350;6.684;2023-12-20T14:33:47;10.14;118.99
19340;HTU21D;9804;52.350;6.684;2023-12-20T14:36:14;10.04;118.99
19340;HTU21D;9804;52.350;6.684;2023-12-20T14:38:39;10.07;118.99
19340;HTU21D;9804;52.350;6.684;2023-12-20T14:41:06;10.18;118.99
19340;HTU21D;9804;52.350;6.684;2023-12-20T14:43:35;10.13;118.99
19340;HTU21D;9804;52.350;6.684;2023-12-20T14:46:00;10.41;118.99
19340;HTU21D;9804;52.350;6.684;2023-12-20T14:48:26;10.27;118.99
19340;HTU21D;9804;52.350;6.684;2023-12-20T14:50:53;10.33;118.99
19340;HTU21D;9804;52.350;6.684;2023-12-20T14:53:18;10.13;118.99
19340;HTU21D;9804;52.350;6.684;2023-12-20T14:55:44;10.43;118.99
19340;HTU21D;9804;52.350;6.684;2023-12-20T14:58:10;10.40;118.99
19340;HTU21D;9804;52.350;6.684;2023-12-20T15:00:35;10.37;118.99
19340;HTU21D;9804;52.350;6.684;2023-12-20T15:03:01;10.33;118.99
19340;HTU21D;9804;52.350;6.684;2023-12-20T15:05:26;10.27;118.99
19340;HTU21D;9804;52.350;6.684;2023-12-20T15:07:52;10.31;118.99
19340;HTU21D;9804;52.350;6.684;2023-12-20T15:10:18;10.36;118.99
19340;HTU21D;9804;52.350;6.684;2023-12-20T15:12:44;10.27;118.99
19340;HTU21D;9804;52.350;6.684;2023-12-20T15:15:13;10.39;118.99
19340;HTU21D;9804;52.350;6.684;2023-12-20T15:17:39;10.35;118.99
19340;HTU21D;9804;52.350;6.684;2023-12-20T15:20:05;10.31;118.99
19340;HTU21D;9804;52.350;6.684;2023-12-20T15:22:30;10.39;118.99